Crescent Valley, Nevada
Current Conditions -  °F | °C
As of 4:56 AM on Saturday 20 Dec 2014 (Local Time) from KEKO Reporting Station
Light Snow Light Snow  
Wind Chill: 33°   Ceiling: 3500
Heat Index: 33°   Visibility: 6mi
Dew Point: 31°   Wind: 3mph
Humidity: 92%   Direction: 80°E
Pressure: 30.07"   Gusts: NA
Location:  40.42°N, 116.58°W
Report Text: KEKO 201256Z AUTO 08003KT 6SM -SN BR SCT030 BKN035 OVC047 01/M01 A3007 RMK AO2 SNB51 SLP193 P0000 T00061006
Loading
Personal Weather Stations






























Interactive Weather Map New forecast layout! Learn more

10-Day Weather Forecast

Advertisements
Track Severe Weather on mobile